Time,TemperatureF,DewpointF,PressureIn,WindDirection,WindDirectionDegrees,WindSpeedMPH,WindSpeedGustMPH,Humidity,HourlyPrecipIn,Conditions,Clouds,dailyrainin,SoftwareType,DateUTC
2013-09-22 00:09:00,65.1,63.0,29.68,East,89,0.0,4.0,91,0.00,,,0.00,weatherlink.com 1.10,2013-09-22 04:09:00,
2013-09-22 00:24:00,65.5,63.0,29.67,East,80,4.0,5.0,90,0.00,,,0.00,weatherlink.com 1.10,2013-09-22 04:24:00,
2013-09-22 00:39:00,65.7,63.0,29.66,East,94,1.0,7.0,90,0.00,,,0.00,weatherlink.com 1.10,2013-09-22 04:39:00,
2013-09-22 00:54:00,65.7,63.0,29.65,ENE,73,1.0,3.0,91,0.00,,,0.00,weatherlink.com 1.10,2013-09-22 04:54:00,
2013-09-22 01:09:00,65.7,63.0,29.65,East,84,1.0,3.0,91,0.00,,,0.00,weatherlink.com 1.10,2013-09-22 05:09:00,
2013-09-22 01:24:00,65.6,63.0,29.63,East,80,5.0,5.0,91,0.00,,,0.00,weatherlink.com 1.10,2013-09-22 05:24:00,
2013-09-22 01:39:00,65.0,63.0,29.62,ENE,77,0.0,4.0,93,0.00,,,0.00,weatherlink.com 1.10,2013-09-22 05:39:00,
2013-09-22 01:54:00,65.2,63.0,29.62,ESE,108,3.0,3.0,93,0.00,,,0.00,weatherlink.com 1.10,2013-09-22 05:54:00,
2013-09-22 02:09:00,65.2,63.0,29.61,East,99,2.0,5.0,93,0.00,,,0.00,weatherlink.com 1.10,2013-09-22 06:09:00,
2013-09-22 02:24:00,65.2,64.0,29.60,NE,46,1.0,4.0,94,0.00,,,0.00,weatherlink.com 1.10,2013-09-22 06:24:00,
2013-09-22 02:39:00,65.4,64.0,29.59,SE,139,2.0,4.0,94,0.00,,,0.00,weatherlink.com 1.10,2013-09-22 06:39:00,
2013-09-22 02:54:00,65.8,64.0,29.58,ESE,102,1.0,6.0,93,0.00,,,0.00,weatherlink.com 1.10,2013-09-22 06:54:00,
2013-09-22 03:09:00,66.5,64.0,29.57,NE,48,3.0,6.0,92,0.00,,,0.00,weatherlink.com 1.10,2013-09-22 07:09:00,
2013-09-22 03:25:00,66.7,64.0,29.56,SE,129,1.0,5.0,91,0.00,,,0.00,weatherlink.com 1.10,2013-09-22 07:25:00,
2013-09-22 03:40:00,66.5,64.0,29.57,SSW,212,0.0,5.0,92,0.01,,,0.01,weatherlink.com 1.10,2013-09-22 07:40:00,
2013-09-22 03:55:00,65.9,64.0,29.56,East,79,0.0,4.0,94,0.06,,,0.06,weatherlink.com 1.10,2013-09-22 07:55:00,
2013-09-22 04:25:00,61.9,60.0,29.59,South,169,4.0,7.0,93,0.67,,,0.67,weatherlink.com 1.10,2013-09-22 08:25:00,
2013-09-22 04:40:00,60.5,59.0,29.60,SE,128,0.0,1.0,93,0.71,,,0.72,weatherlink.com 1.10,2013-09-22 08:40:00,
2013-09-22 04:55:00,59.8,58.0,29.59,SE,127,0.0,1.0,95,0.68,,,0.75,weatherlink.com 1.10,2013-09-22 08:55:00,
2013-09-22 05:10:00,59.4,58.0,29.59,West,259,1.0,2.0,95,0.23,,,0.77,weatherlink.com 1.10,2013-09-22 09:10:00,
2013-09-22 05:25:00,59.2,58.0,29.58,WNW,301,1.0,7.0,95,0.09,,,0.77,weatherlink.com 1.10,2013-09-22 09:25:00,
2013-09-22 05:40:00,59.1,58.0,29.60,SSW,203,1.0,4.0,95,0.06,,,0.78,weatherlink.com 1.10,2013-09-22 09:40:00,
2013-09-22 05:55:00,59.1,58.0,29.61,ENE,75,3.0,7.0,95,0.03,,,0.78,weatherlink.com 1.10,2013-09-22 09:55:00,
2013-09-22 06:10:00,59.0,58.0,29.60,SW,226,3.0,6.0,95,0.02,,,0.79,weatherlink.com 1.10,2013-09-22 10:10:00,
2013-09-22 06:25:00,58.8,57.0,29.61,SW,229,0.0,2.0,95,0.03,,,0.80,weatherlink.com 1.10,2013-09-22 10:25:00,
2013-09-22 06:40:00,58.6,58.0,29.62,WSW,246,0.0,1.0,96,0.05,,,0.83,weatherlink.com 1.10,2013-09-22 10:40:00,
2013-09-22 07:10:00,58.3,57.0,29.62,SW,231,0.0,4.0,96,0.06,,,0.85,weatherlink.com 1.10,2013-09-22 11:10:00,
2013-09-22 07:25:00,58.2,57.0,29.62,WSW,239,2.0,3.0,95,0.04,,,0.85,weatherlink.com 1.10,2013-09-22 11:25:00,
2013-09-22 07:40:00,58.2,57.0,29.62,West,279,1.0,2.0,95,0.02,,,0.85,weatherlink.com 1.10,2013-09-22 11:40:00,
2013-09-22 07:55:00,58.5,57.0,29.62,West,260,0.0,6.0,95,0.00,,,0.85,weatherlink.com 1.10,2013-09-22 11:55:00,
2013-09-22 08:10:00,58.7,57.0,29.62,West,259,5.0,6.0,95,0.00,,,0.85,weatherlink.com 1.10,2013-09-22 12:10:00,
2013-09-22 08:25:00,58.8,57.0,29.62,NE,54,1.0,6.0,94,0.00,,,0.85,weatherlink.com 1.10,2013-09-22 12:25:00,
2013-09-22 08:40:00,58.8,57.0,29.62,NNE,33,1.0,5.0,94,0.00,,,0.85,weatherlink.com 1.10,2013-09-22 12:40:00,
2013-09-22 08:55:00,58.4,56.0,29.63,NW,315,4.0,10.0,92,0.00,,,0.85,weatherlink.com 1.10,2013-09-22 12:55:00,
2013-09-22 09:10:00,57.5,56.0,29.64,NW,304,1.0,9.0,93,0.00,,,0.85,weatherlink.com 1.10,2013-09-22 13:10:00,
2013-09-22 09:25:00,57.3,55.0,29.64,NNE,26,2.0,10.0,92,0.00,,,0.85,weatherlink.com 1.10,2013-09-22 13:25:00,
2013-09-22 09:40:00,58.4,55.0,29.64,NNW,339,3.0,13.0,88,0.00,,,0.85,weatherlink.com 1.10,2013-09-22 13:40:00,
2013-09-22 09:55:00,60.1,56.0,29.64,WNW,298,6.0,8.0,86,0.00,,,0.85,weatherlink.com 1.10,2013-09-22 13:55:00,
2013-09-22 10:10:00,61.2,57.0,29.64,West,274,5.0,6.0,85,0.00,,,0.85,weatherlink.com 1.10,2013-09-22 14:10:00,
2013-09-22 10:25:00,60.7,54.0,29.64,WSW,253,4.0,14.0,78,0.00,,,0.85,weatherlink.com 1.10,2013-09-22 14:25:00,
2013-09-22 10:40:00,60.9,54.0,29.64,NW,311,3.0,13.0,77,0.00,,,0.85,weatherlink.com 1.10,2013-09-22 14:40:00,
2013-09-22 10:55:00,61.8,54.0,29.64,SSE,153,4.0,9.0,76,0.00,,,0.85,weatherlink.com 1.10,2013-09-22 14:55:00,
2013-09-22 11:10:00,62.3,55.0,29.64,South,179,5.0,10.0,76,0.00,,,0.85,weatherlink.com 1.10,2013-09-22 15:10:00,
2013-09-22 11:25:00,62.1,53.0,29.64,WNW,284,4.0,11.0,73,0.00,,,0.85,weatherlink.com 1.10,2013-09-22 15:25:00,
2013-09-22 11:40:00,62.7,54.0,29.64,NNW,336,6.0,11.0,72,0.00,,,0.85,weatherlink.com 1.10,2013-09-22 15:40:00,
2013-09-22 11:55:00,62.8,53.0,29.65,West,273,2.0,12.0,71,0.00,,,0.85,weatherlink.com 1.10,2013-09-22 15:55:00,
2013-09-22 12:10:00,63.6,53.0,29.64,NNW,340,2.0,15.0,68,0.00,,,0.85,weatherlink.com 1.10,2013-09-22 16:10:00,
2013-09-22 12:25:00,63.7,52.0,29.65,South,177,3.0,14.0,65,0.00,,,0.85,weatherlink.com 1.10,2013-09-22 16:25:00,
2013-09-22 12:40:00,63.5,52.0,29.65,WSW,253,2.0,11.0,66,0.00,,,0.85,weatherlink.com 1.10,2013-09-22 16:40:00,
2013-09-22 12:55:00,64.0,52.0,29.64,NE,47,5.0,9.0,66,0.00,,,0.85,weatherlink.com 1.10,2013-09-22 16:55:00,
2013-09-22 13:10:00,63.6,52.0,29.65,NW,318,5.0,14.0,66,0.00,,,0.85,weatherlink.com 1.10,2013-09-22 17:10:00,
2013-09-22 13:25:00,64.3,52.0,29.65,SSE,152,3.0,11.0,64,0.00,,,0.85,weatherlink.com 1.10,2013-09-22 17:25:00,
2013-09-22 13:41:00,65.0,54.0,29.65,West,259,3.0,9.0,67,0.00,,,0.85,weatherlink.com 1.10,2013-09-22 17:41:00,
2013-09-22 13:56:00,64.0,50.0,29.65,ENE,72,6.0,12.0,61,0.00,,,0.85,weatherlink.com 1.10,2013-09-22 17:56:00,
2013-09-22 14:11:00,64.2,50.0,29.65,WSW,252,2.0,9.0,61,0.00,,,0.85,weatherlink.com 1.10,2013-09-22 18:11:00,
2013-09-22 14:26:00,63.9,51.0,29.65,West,274,6.0,11.0,63,0.00,,,0.85,weatherlink.com 1.10,2013-09-22 18:26:00,
2013-09-22 14:41:00,61.8,51.0,29.65,WSW,240,2.0,7.0,68,0.00,,,0.85,weatherlink.com 1.10,2013-09-22 18:41:00,
2013-09-22 14:56:00,61.6,50.0,29.65,West,277,3.0,6.0,67,0.00,,,0.85,weatherlink.com 1.10,2013-09-22 18:56:00,
2013-09-22 15:11:00,63.2,51.0,29.65,SW,236,5.0,8.0,65,0.00,,,0.85,weatherlink.com 1.10,2013-09-22 19:11:00,
2013-09-22 15:26:00,62.4,50.0,29.65,SW,214,1.0,7.0,64,0.00,,,0.85,weatherlink.com 1.10,2013-09-22 19:26:00,
2013-09-22 15:41:00,61.8,51.0,29.66,West,269,1.0,7.0,68,0.00,,,0.85,weatherlink.com 1.10,2013-09-22 19:41:00,
2013-09-22 15:56:00,61.9,51.0,29.66,WSW,238,1.0,7.0,68,0.00,,,0.85,weatherlink.com 1.10,2013-09-22 19:56:00,
2013-09-22 16:11:00,61.4,52.0,29.66,WNW,294,0.0,8.0,71,0.00,,,0.85,weatherlink.com 1.10,2013-09-22 20:11:00,
2013-09-22 16:26:00,61.3,51.0,29.67,West,274,2.0,7.0,69,0.00,,,0.85,weatherlink.com 1.10,2013-09-22 20:26:00,
2013-09-22 16:41:00,60.3,51.0,29.68,WNW,291,3.0,12.0,72,0.00,,,0.85,weatherlink.com 1.10,2013-09-22 20:41:00,
2013-09-22 16:56:00,59.3,50.0,29.68,SW,229,4.0,16.0,70,0.00,,,0.85,weatherlink.com 1.10,2013-09-22 20:56:00,
2013-09-22 17:11:00,58.6,50.0,29.68,NW,314,1.0,9.0,72,0.00,,,0.85,weatherlink.com 1.10,2013-09-22 21:11:00,
2013-09-22 17:26:00,58.2,49.0,29.69,WNW,287,1.0,11.0,72,0.00,,,0.85,weatherlink.com 1.10,2013-09-22 21:26:00,
2013-09-22 17:41:00,58.0,49.0,29.69,NW,321,4.0,13.0,72,0.00,,,0.85,weatherlink.com 1.10,2013-09-22 21:41:00,
2013-09-22 17:56:00,57.4,49.0,29.70,West,270,4.0,12.0,73,0.00,,,0.85,weatherlink.com 1.10,2013-09-22 21:56:00,
2013-09-22 18:11:00,56.3,48.0,29.70,WNW,298,3.0,7.0,75,0.00,,,0.85,weatherlink.com 1.10,2013-09-22 22:11:00,
2013-09-22 18:26:00,55.3,49.0,29.70,WNW,290,2.0,8.0,79,0.00,,,0.85,weatherlink.com 1.10,2013-09-22 22:26:00,
2013-09-22 18:41:00,54.6,49.0,29.71,WNW,300,3.0,9.0,81,0.00,,,0.85,weatherlink.com 1.10,2013-09-22 22:41:00,
2013-09-22 18:56:00,54.4,48.0,29.72,WNW,293,4.0,9.0,79,0.00,,,0.85,weatherlink.com 1.10,2013-09-22 22:56:00,
2013-09-22 19:11:00,54.0,47.0,29.72,WNW,297,1.0,8.0,78,0.00,,,0.85,weatherlink.com 1.10,2013-09-22 23:11:00,
2013-09-22 19:26:00,53.7,47.0,29.73,West,274,2.0,6.0,78,0.00,,,0.85,weatherlink.com 1.10,2013-09-22 23:26:00,
2013-09-22 19:41:00,53.2,47.0,29.74,NW,312,1.0,10.0,79,0.00,,,0.85,weatherlink.com 1.10,2013-09-22 23:41:00,
2013-09-22 19:56:00,53.3,47.0,29.75,WNW,294,5.0,12.0,80,0.00,,,0.85,weatherlink.com 1.10,2013-09-22 23:56:00,
2013-09-22 20:11:00,53.4,47.0,29.76,NW,309,4.0,12.0,79,0.00,,,0.85,weatherlink.com 1.10,2013-09-23 00:11:00,
2013-09-22 20:27:00,53.4,47.0,29.77,NW,307,2.0,9.0,78,0.00,,,0.85,weatherlink.com 1.10,2013-09-23 00:27:00,
2013-09-22 20:41:00,53.1,47.0,29.77,WNW,284,4.0,10.0,79,0.00,,,0.85,weatherlink.com 1.10,2013-09-23 00:41:00,
2013-09-22 20:56:00,52.6,47.0,29.78,WSW,248,3.0,6.0,80,0.00,,,0.85,weatherlink.com 1.10,2013-09-23 00:56:00,
2013-09-22 21:11:00,51.5,47.0,29.78,West,277,0.0,4.0,83,0.00,,,0.85,weatherlink.com 1.10,2013-09-23 01:11:00,
2013-09-22 21:27:00,50.9,46.0,29.78,NW,307,1.0,9.0,83,0.00,,,0.85,weatherlink.com 1.10,2013-09-23 01:27:00,
2013-09-22 21:42:00,50.8,46.0,29.79,WNW,296,0.0,6.0,83,0.00,,,0.85,weatherlink.com 1.10,2013-09-23 01:42:00,
2013-09-22 21:57:00,51.3,45.0,29.79,West,264,1.0,8.0,80,0.00,,,0.85,weatherlink.com 1.10,2013-09-23 01:57:00,
2013-09-22 22:12:00,51.1,45.0,29.79,WSW,255,0.0,6.0,81,0.00,,,0.85,weatherlink.com 1.10,2013-09-23 02:12:00,
2013-09-22 22:27:00,50.6,45.0,29.80,WSW,241,0.0,6.0,81,0.00,,,0.85,weatherlink.com 1.10,2013-09-23 02:27:00,
2013-09-22 22:42:00,50.2,45.0,29.80,West,281,3.0,7.0,82,0.00,,,0.85,weatherlink.com 1.10,2013-09-23 02:42:00,
2013-09-22 22:57:00,49.8,44.0,29.81,West,281,1.0,8.0,81,0.00,,,0.85,weatherlink.com 1.10,2013-09-23 02:57:00,
2013-09-22 23:12:00,49.1,44.0,29.81,West,276,2.0,7.0,81,0.00,,,0.85,weatherlink.com 1.10,2013-09-23 03:12:00,
2013-09-22 23:27:00,48.4,43.0,29.82,West,270,3.0,6.0,81,0.00,,,0.85,weatherlink.com 1.10,2013-09-23 03:27:00,
2013-09-22 23:42:00,47.8,43.0,29.82,West,259,0.0,4.0,82,0.00,,,0.85,weatherlink.com 1.10,2013-09-23 03:42:00,
2013-09-22 23:57:00,47.2,42.0,29.82,SW,223,6.0,7.0,82,0.00,,,0.85,weatherlink.com 1.10,2013-09-23 03:57:00,